sensor_id;sensor_type;location;lat;lon;timestamp;P1;durP1;ratioP1;P2;durP2;ratioP2
3791;SDS011;1911;53.768;11.474;2022-10-04T00:01:18;10.00;;;2.80;;
3791;SDS011;1911;53.768;11.474;2022-10-04T00:03:46;9.47;;;2.70;;
3791;SDS011;1911;53.768;11.474;2022-10-04T00:06:20;15.97;;;2.97;;
3791;SDS011;1911;53.768;11.474;2022-10-04T00:11:35;9.70;;;4.17;;
3791;SDS011;1911;53.768;11.474;2022-10-04T00:14:06;9.43;;;3.43;;
3791;SDS011;1911;53.768;11.474;2022-10-04T00:16:38;18.40;;;4.20;;
3791;SDS011;1911;53.768;11.474;2022-10-04T00:36:59;9.50;;;2.90;;
3791;SDS011;1911;53.768;11.474;2022-10-04T00:42:01;14.67;;;2.73;;
3791;SDS011;1911;53.768;11.474;2022-10-04T00:52:54;8.80;;;2.63;;
3791;SDS011;1911;53.768;11.474;2022-10-04T00:55:36;14.00;;;3.00;;
3791;SDS011;1911;53.768;11.474;2022-10-04T00:58:13;11.87;;;4.17;;
3791;SDS011;1911;53.768;11.474;2022-10-04T01:00:42;16.23;;;3.20;;
3791;SDS011;1911;53.768;11.474;2022-10-04T01:05:59;13.20;;;3.90;;
3791;SDS011;1911;53.768;11.474;2022-10-04T01:11:04;18.43;;;4.33;;
3791;SDS011;1911;53.768;11.474;2022-10-04T01:13:47;13.80;;;3.77;;
3791;SDS011;1911;53.768;11.474;2022-10-04T01:16:28;18.10;;;3.73;;
3791;SDS011;1911;53.768;11.474;2022-10-04T01:21:58;16.85;;;5.38;;
3791;SDS011;1911;53.768;11.474;2022-10-04T01:24:39;13.10;;;3.60;;
3791;SDS011;1911;53.768;11.474;2022-10-04T01:29:57;15.17;;;5.60;;
3791;SDS011;1911;53.768;11.474;2022-10-04T01:32:24;16.03;;;3.83;;
3791;SDS011;1911;53.768;11.474;2022-10-04T01:34:50;16.87;;;3.97;;
3791;SDS011;1911;53.768;11.474;2022-10-04T01:37:16;11.60;;;3.30;;
3791;SDS011;1911;53.768;11.474;2022-10-04T01:39:41;12.50;;;4.20;;
3791;SDS011;1911;53.768;11.474;2022-10-04T01:42:10;12.60;;;4.60;;
3791;SDS011;1911;53.768;11.474;2022-10-04T01:47:17;18.23;;;5.20;;
3791;SDS011;1911;53.768;11.474;2022-10-04T01:50:03;10.20;;;4.57;;
3791;SDS011;1911;53.768;11.474;2022-10-04T01:52:38;12.67;;;5.43;;
3791;SDS011;1911;53.768;11.474;2022-10-04T01:55:27;13.87;;;5.47;;
3791;SDS011;1911;53.768;11.474;2022-10-04T01:57:57;10.73;;;5.90;;
3791;SDS011;1911;53.768;11.474;2022-10-04T02:00:26;8.73;;;5.22;;
3791;SDS011;1911;53.768;11.474;2022-10-04T02:03:03;8.63;;;5.97;;
3791;SDS011;1911;53.768;11.474;2022-10-04T02:05:33;9.93;;;5.20;;
3791;SDS011;1911;53.768;11.474;2022-10-04T02:08:04;14.50;;;5.37;;
3791;SDS011;1911;53.768;11.474;2022-10-04T02:10:34;15.13;;;5.70;;
3791;SDS011;1911;53.768;11.474;2022-10-04T02:13:06;9.90;;;4.70;;
3791;SDS011;1911;53.768;11.474;2022-10-04T02:15:35;13.83;;;5.13;;
3791;SDS011;1911;53.768;11.474;2022-10-04T02:18:04;10.40;;;4.80;;
3791;SDS011;1911;53.768;11.474;2022-10-04T02:20:37;18.10;;;5.80;;
3791;SDS011;1911;53.768;11.474;2022-10-04T02:23:04;12.60;;;5.40;;
3791;SDS011;1911;53.768;11.474;2022-10-04T02:25:31;9.23;;;5.37;;
3791;SDS011;1911;53.768;11.474;2022-10-04T02:27:56;16.70;;;6.37;;
3791;SDS011;1911;53.768;11.474;2022-10-04T02:30:22;10.77;;;5.67;;
3791;SDS011;1911;53.768;11.474;2022-10-04T02:32:51;9.63;;;5.33;;
3791;SDS011;1911;53.768;11.474;2022-10-04T02:35:21;9.87;;;5.67;;
3791;SDS011;1911;53.768;11.474;2022-10-04T02:43:18;11.90;;;4.90;;
3791;SDS011;1911;53.768;11.474;2022-10-04T02:46:08;10.80;;;5.00;;
3791;SDS011;1911;53.768;11.474;2022-10-04T02:51:22;8.68;;;5.45;;
3791;SDS011;1911;53.768;11.474;2022-10-04T02:56:55;10.27;;;5.20;;
3791;SDS011;1911;53.768;11.474;2022-10-04T02:59:22;11.67;;;5.73;;
3791;SDS011;1911;53.768;11.474;2022-10-04T03:01:52;11.27;;;5.38;;
3791;SDS011;1911;53.768;11.474;2022-10-04T03:04:26;11.60;;;6.10;;
3791;SDS011;1911;53.768;11.474;2022-10-04T03:06:55;9.23;;;5.20;;
3791;SDS011;1911;53.768;11.474;2022-10-04T03:09:23;8.90;;;4.83;;
3791;SDS011;1911;53.768;11.474;2022-10-04T03:11:50;10.30;;;5.65;;
3791;SDS011;1911;53.768;11.474;2022-10-04T03:14:25;8.83;;;4.57;;
3791;SDS011;1911;53.768;11.474;2022-10-04T03:16:53;7.83;;;4.77;;
3791;SDS011;1911;53.768;11.474;2022-10-04T03:19:21;11.90;;;4.43;;
3791;SDS011;1911;53.768;11.474;2022-10-04T03:21:50;9.37;;;5.27;;
3791;SDS011;1911;53.768;11.474;2022-10-04T03:24:19;10.80;;;5.55;;
3791;SDS011;1911;53.768;11.474;2022-10-04T03:26:49;11.00;;;5.27;;
3791;SDS011;1911;53.768;11.474;2022-10-04T03:29:19;12.70;;;5.33;;
3791;SDS011;1911;53.768;11.474;2022-10-04T03:31:48;14.30;;;6.17;;
3791;SDS011;1911;53.768;11.474;2022-10-04T03:34:16;13.47;;;5.57;;
3791;SDS011;1911;53.768;11.474;2022-10-04T03:36:47;11.18;;;5.68;;
3791;SDS011;1911;53.768;11.474;2022-10-04T03:39:17;7.85;;;5.25;;
3791;SDS011;1911;53.768;11.474;2022-10-04T03:41:56;11.07;;;5.30;;
3791;SDS011;1911;53.768;11.474;2022-10-04T03:44:23;12.20;;;5.73;;
3791;SDS011;1911;53.768;11.474;2022-10-04T03:46:49;11.93;;;5.20;;
3791;SDS011;1911;53.768;11.474;2022-10-04T03:49:22;17.50;;;6.00;;
3791;SDS011;1911;53.768;11.474;2022-10-04T03:51:55;9.80;;;5.97;;
3791;SDS011;1911;53.768;11.474;2022-10-04T03:54:23;12.73;;;5.97;;
3791;SDS011;1911;53.768;11.474;2022-10-04T03:56:52;9.27;;;5.70;;
3791;SDS011;1911;53.768;11.474;2022-10-04T03:59:19;12.30;;;5.70;;
3791;SDS011;1911;53.768;11.474;2022-10-04T04:01:48;18.03;;;6.67;;
3791;SDS011;1911;53.768;11.474;2022-10-04T04:04:42;10.53;;;6.03;;
3791;SDS011;1911;53.768;11.474;2022-10-04T04:07:18;11.13;;;6.20;;
3791;SDS011;1911;53.768;11.474;2022-10-04T04:10:04;11.13;;;7.10;;
3791;SDS011;1911;53.768;11.474;2022-10-04T04:12:45;14.87;;;6.87;;
3791;SDS011;1911;53.768;11.474;2022-10-04T04:15:19;13.32;;;7.25;;
3791;SDS011;1911;53.768;11.474;2022-10-04T04:17:46;13.57;;;6.93;;
3791;SDS011;1911;53.768;11.474;2022-10-04T04:20:29;16.60;;;6.40;;
3791;SDS011;1911;53.768;11.474;2022-10-04T04:22:59;14.17;;;7.17;;
3791;SDS011;1911;53.768;11.474;2022-10-04T04:25:30;12.65;;;6.18;;
3791;SDS011;1911;53.768;11.474;2022-10-04T04:28:00;18.87;;;7.60;;
3791;SDS011;1911;53.768;11.474;2022-10-04T04:30:31;15.83;;;6.90;;
3791;SDS011;1911;53.768;11.474;2022-10-04T04:33:05;25.47;;;7.60;;
3791;SDS011;1911;53.768;11.474;2022-10-04T04:35:35;14.77;;;6.83;;
3791;SDS011;1911;53.768;11.474;2022-10-04T04:38:22;12.40;;;6.83;;
3791;SDS011;1911;53.768;11.474;2022-10-04T04:40:49;13.83;;;6.50;;
3791;SDS011;1911;53.768;11.474;2022-10-04T04:43:20;14.70;;;6.97;;
3791;SDS011;1911;53.768;11.474;2022-10-04T04:45:48;11.03;;;6.53;;
3791;SDS011;1911;53.768;11.474;2022-10-04T04:48:15;12.80;;;5.57;;
3791;SDS011;1911;53.768;11.474;2022-10-04T04:50:47;12.50;;;6.00;;
3791;SDS011;1911;53.768;11.474;2022-10-04T04:53:19;14.20;;;7.00;;
3791;SDS011;1911;53.768;11.474;2022-10-04T04:55:49;14.83;;;5.60;;
3791;SDS011;1911;53.768;11.474;2022-10-04T04:58:19;10.10;;;5.93;;
3791;SDS011;1911;53.768;11.474;2022-10-04T05:03:22;19.23;;;6.25;;
3791;SDS011;1911;53.768;11.474;2022-10-04T05:05:48;12.80;;;6.53;;
3791;SDS011;1911;53.768;11.474;2022-10-04T05:08:19;14.30;;;6.47;;
3791;SDS011;1911;53.768;11.474;2022-10-04T05:13:32;11.93;;;6.27;;
3791;SDS011;1911;53.768;11.474;2022-10-04T05:16:04;14.60;;;6.20;;
3791;SDS011;1911;53.768;11.474;2022-10-04T05:18:43;14.93;;;5.87;;
3791;SDS011;1911;53.768;11.474;2022-10-04T05:21:14;22.33;;;6.57;;
3791;SDS011;1911;53.768;11.474;2022-10-04T05:23:46;17.10;;;7.13;;
3791;SDS011;1911;53.768;11.474;2022-10-04T05:26:11;17.80;;;7.13;;
3791;SDS011;1911;53.768;11.474;2022-10-04T05:28:38;16.10;;;6.50;;
3791;SDS011;1911;53.768;11.474;2022-10-04T05:34:01;15.60;;;6.50;;
3791;SDS011;1911;53.768;11.474;2022-10-04T05:36:46;16.77;;;7.43;;
3791;SDS011;1911;53.768;11.474;2022-10-04T05:39:28;14.63;;;7.03;;
3791;SDS011;1911;53.768;11.474;2022-10-04T05:44:55;15.30;;;7.40;;
3791;SDS011;1911;53.768;11.474;2022-10-04T05:47:23;15.90;;;8.00;;
3791;SDS011;1911;53.768;11.474;2022-10-04T05:49:55;20.70;;;9.00;;
3791;SDS011;1911;53.768;11.474;2022-10-04T05:55:17;18.20;;;9.70;;
3791;SDS011;1911;53.768;11.474;2022-10-04T05:58:04;16.30;;;9.10;;
3791;SDS011;1911;53.768;11.474;2022-10-04T06:06:21;20.30;;;11.10;;
3791;SDS011;1911;53.768;11.474;2022-10-04T06:11:40;19.03;;;9.27;;
3791;SDS011;1911;53.768;11.474;2022-10-04T06:20:24;16.53;;;8.23;;
3791;SDS011;1911;53.768;11.474;2022-10-04T06:23:15;22.87;;;9.90;;
3791;SDS011;1911;53.768;11.474;2022-10-04T06:25:50;15.70;;;8.43;;
3791;SDS011;1911;53.768;11.474;2022-10-04T06:28:23;15.50;;;8.93;;
3791;SDS011;1911;53.768;11.474;2022-10-04T06:33:39;22.43;;;9.20;;
3791;SDS011;1911;53.768;11.474;2022-10-04T06:36:13;16.17;;;8.30;;
3791;SDS011;1911;53.768;11.474;2022-10-04T06:47:20;11.63;;;7.30;;
3791;SDS011;1911;53.768;11.474;2022-10-04T06:49:59;16.03;;;8.50;;
3791;SDS011;1911;53.768;11.474;2022-10-04T06:55:27;21.87;;;8.70;;
3791;SDS011;1911;53.768;11.474;2022-10-04T07:03:52;9.57;;;6.20;;
3791;SDS011;1911;53.768;11.474;2022-10-04T07:06:21;10.47;;;6.53;;
3791;SDS011;1911;53.768;11.474;2022-10-04T07:08:51;12.60;;;6.63;;
3791;SDS011;1911;53.768;11.474;2022-10-04T07:14:19;14.57;;;5.60;;
3791;SDS011;1911;53.768;11.474;2022-10-04T07:17:00;13.02;;;6.45;;
3791;SDS011;1911;53.768;11.474;2022-10-04T07:19:39;11.70;;;5.88;;
3791;SDS011;1911;53.768;11.474;2022-10-04T07:22:30;11.87;;;6.97;;
3791;SDS011;1911;53.768;11.474;2022-10-04T07:30:15;11.33;;;4.90;;
3791;SDS011;1911;53.768;11.474;2022-10-04T07:32:45;7.93;;;5.53;;
3791;SDS011;1911;53.768;11.474;2022-10-04T07:35:19;13.87;;;5.13;;
3791;SDS011;1911;53.768;11.474;2022-10-04T07:38:01;11.80;;;4.87;;
3791;SDS011;1911;53.768;11.474;2022-10-04T07:43:50;9.93;;;5.50;;
3791;SDS011;1911;53.768;11.474;2022-10-04T07:49:09;8.70;;;4.70;;
3791;SDS011;1911;53.768;11.474;2022-10-04T07:54:20;10.73;;;4.20;;
3791;SDS011;1911;53.768;11.474;2022-10-04T07:56:57;10.10;;;4.20;;
3791;SDS011;1911;53.768;11.474;2022-10-04T08:02:18;9.90;;;4.30;;
3791;SDS011;1911;53.768;11.474;2022-10-04T08:07:54;8.03;;;3.70;;
3791;SDS011;1911;53.768;11.474;2022-10-04T08:10:32;8.07;;;3.97;;
3791;SDS011;1911;53.768;11.474;2022-10-04T08:16:12;9.37;;;4.20;;
3791;SDS011;1911;53.768;11.474;2022-10-04T08:21:57;6.70;;;3.80;;
3791;SDS011;1911;53.768;11.474;2022-10-04T08:30:04;10.67;;;3.50;;
3791;SDS011;1911;53.768;11.474;2022-10-04T08:32:41;10.37;;;4.53;;
3791;SDS011;1911;53.768;11.474;2022-10-04T08:41:09;8.53;;;3.97;;
3791;SDS011;1911;53.768;11.474;2022-10-04T08:47:03;12.10;;;4.40;;
3791;SDS011;1911;53.768;11.474;2022-10-04T08:50:03;7.07;;;3.27;;
3791;SDS011;1911;53.768;11.474;2022-10-04T08:52:56;5.83;;;2.80;;
3791;SDS011;1911;53.768;11.474;2022-10-04T08:58:38;7.03;;;2.50;;
3791;SDS011;1911;53.768;11.474;2022-10-04T09:17:47;8.83;;;2.80;;
3791;SDS011;1911;53.768;11.474;2022-10-04T09:34:33;6.93;;;2.67;;
3791;SDS011;1911;53.768;11.474;2022-10-04T09:43:05;6.70;;;2.20;;
3791;SDS011;1911;53.768;11.474;2022-10-04T10:08:47;13.60;;;3.73;;
3791;SDS011;1911;53.768;11.474;2022-10-04T10:14:59;6.20;;;2.40;;
3791;SDS011;1911;53.768;11.474;2022-10-04T10:17:47;4.30;;;2.47;;
3791;SDS011;1911;53.768;11.474;2022-10-04T10:29:18;7.00;;;3.10;;
3791;SDS011;1911;53.768;11.474;2022-10-04T10:32:11;11.30;;;3.40;;
3791;SDS011;1911;53.768;11.474;2022-10-04T10:35:15;6.28;;;3.38;;
3791;SDS011;1911;53.768;11.474;2022-10-04T10:44:29;10.87;;;2.97;;
3791;SDS011;1911;53.768;11.474;2022-10-04T11:06:54;6.87;;;2.90;;
3791;SDS011;1911;53.768;11.474;2022-10-04T11:09:50;4.83;;;2.67;;
3791;SDS011;1911;53.768;11.474;2022-10-04T11:12:27;11.83;;;3.33;;
3791;SDS011;1911;53.768;11.474;2022-10-04T11:59:21;5.43;;;2.73;;
3791;SDS011;1911;53.768;11.474;2022-10-04T12:05:18;7.65;;;3.00;;
3791;SDS011;1911;53.768;11.474;2022-10-04T12:08:22;9.98;;;3.60;;
3791;SDS011;1911;53.768;11.474;2022-10-04T12:14:15;12.00;;;3.83;;
3791;SDS011;1911;53.768;11.474;2022-10-04T12:27:57;8.70;;;4.67;;
3791;SDS011;1911;53.768;11.474;2022-10-04T12:30:51;8.37;;;3.43;;
3791;SDS011;1911;53.768;11.474;2022-10-04T12:33:43;13.10;;;3.72;;
3791;SDS011;1911;53.768;11.474;2022-10-04T12:50:32;8.50;;;4.53;;
3791;SDS011;1911;53.768;11.474;2022-10-04T12:56:32;5.63;;;3.50;;
3791;SDS011;1911;53.768;11.474;2022-10-04T12:59:26;7.33;;;2.70;;
3791;SDS011;1911;53.768;11.474;2022-10-04T13:05:26;7.67;;;2.80;;
3791;SDS011;1911;53.768;11.474;2022-10-04T13:21:02;8.30;;;3.53;;
3791;SDS011;1911;53.768;11.474;2022-10-04T13:29:21;8.87;;;3.53;;
3791;SDS011;1911;53.768;11.474;2022-10-04T13:32:10;6.72;;;3.33;;
3791;SDS011;1911;53.768;11.474;2022-10-04T13:37:17;10.37;;;2.80;;
3791;SDS011;1911;53.768;11.474;2022-10-04T13:51:31;6.37;;;3.53;;
3791;SDS011;1911;53.768;11.474;2022-10-04T13:58:00;7.70;;;3.00;;
3791;SDS011;1911;53.768;11.474;2022-10-04T14:00:50;6.83;;;2.60;;
3791;SDS011;1911;53.768;11.474;2022-10-04T14:03:58;6.10;;;2.63;;
3791;SDS011;1911;53.768;11.474;2022-10-04T14:26:17;7.15;;;2.83;;
3791;SDS011;1911;53.768;11.474;2022-10-04T14:40:04;9.67;;;2.20;;
3791;SDS011;1911;53.768;11.474;2022-10-04T14:43:02;6.10;;;2.50;;
3791;SDS011;1911;53.768;11.474;2022-10-04T14:54:05;4.67;;;2.53;;
3791;SDS011;1911;53.768;11.474;2022-10-04T15:04:36;7.43;;;3.57;;
3791;SDS011;1911;53.768;11.474;2022-10-04T15:07:39;5.03;;;2.47;;
3791;SDS011;1911;53.768;11.474;2022-10-04T15:10:15;6.23;;;2.67;;
3791;SDS011;1911;53.768;11.474;2022-10-04T15:13:07;4.63;;;2.40;;
3791;SDS011;1911;53.768;11.474;2022-10-04T15:18:29;5.13;;;2.67;;
3791;SDS011;1911;53.768;11.474;2022-10-04T15:23:53;8.90;;;3.10;;
3791;SDS011;1911;53.768;11.474;2022-10-04T15:42:28;6.70;;;2.40;;
3791;SDS011;1911;53.768;11.474;2022-10-04T16:07:48;6.43;;;2.60;;
3791;SDS011;1911;53.768;11.474;2022-10-04T16:10:27;10.77;;;2.77;;
3791;SDS011;1911;53.768;11.474;2022-10-04T16:15:46;6.10;;;3.10;;
3791;SDS011;1911;53.768;11.474;2022-10-04T16:32:12;5.87;;;2.00;;
3791;SDS011;1911;53.768;11.474;2022-10-04T16:48:49;6.97;;;2.70;;
3791;SDS011;1911;53.768;11.474;2022-10-04T20:15:57;5.87;;;3.80;;
3791;SDS011;1911;53.768;11.474;2022-10-04T20:31:04;7.93;;;3.95;;
3791;SDS011;1911;53.768;11.474;2022-10-04T20:52:58;5.70;;;4.07;;
3791;SDS011;1911;53.768;11.474;2022-10-04T20:55:29;5.40;;;3.73;;
3791;SDS011;1911;53.768;11.474;2022-10-04T20:57:59;5.67;;;4.10;;
3791;SDS011;1911;53.768;11.474;2022-10-04T21:00:28;9.57;;;4.20;;
3791;SDS011;1911;53.768;11.474;2022-10-04T21:05:58;6.03;;;4.72;;
3791;SDS011;1911;53.768;11.474;2022-10-04T21:08:32;5.87;;;4.30;;
3791;SDS011;1911;53.768;11.474;2022-10-04T21:13:40;9.80;;;4.60;;
3791;SDS011;1911;53.768;11.474;2022-10-04T21:16:10;5.50;;;4.30;;
3791;SDS011;1911;53.768;11.474;2022-10-04T21:19:26;8.03;;;4.60;;
3791;SDS011;1911;53.768;11.474;2022-10-04T21:21:57;6.88;;;5.07;;
3791;SDS011;1911;53.768;11.474;2022-10-04T21:24:33;7.47;;;4.10;;
3791;SDS011;1911;53.768;11.474;2022-10-04T21:27:03;7.85;;;4.47;;
3791;SDS011;1911;53.768;11.474;2022-10-04T21:29:30;9.60;;;4.97;;
3791;SDS011;1911;53.768;11.474;2022-10-04T21:31:56;5.37;;;4.07;;
3791;SDS011;1911;53.768;11.474;2022-10-04T21:34:23;6.50;;;4.47;;
3791;SDS011;1911;53.768;11.474;2022-10-04T21:36:49;5.73;;;4.40;;
3791;SDS011;1911;53.768;11.474;2022-10-04T21:41:52;5.20;;;3.90;;
3791;SDS011;1911;53.768;11.474;2022-10-04T21:44:18;8.50;;;5.07;;
3791;SDS011;1911;53.768;11.474;2022-10-04T21:46:43;5.73;;;4.47;;
3791;SDS011;1911;53.768;11.474;2022-10-04T21:49:09;7.40;;;4.17;;
3791;SDS011;1911;53.768;11.474;2022-10-04T21:51:34;6.73;;;4.63;;
3791;SDS011;1911;53.768;11.474;2022-10-04T21:54:02;5.13;;;3.77;;
3791;SDS011;1911;53.768;11.474;2022-10-04T21:56:28;5.53;;;4.30;;
3791;SDS011;1911;53.768;11.474;2022-10-04T21:58:54;7.83;;;4.47;;
3791;SDS011;1911;53.768;11.474;2022-10-04T22:01:19;6.10;;;3.87;;
3791;SDS011;1911;53.768;11.474;2022-10-04T22:03:45;7.90;;;5.00;;
3791;SDS011;1911;53.768;11.474;2022-10-04T22:06:10;9.27;;;5.50;;
3791;SDS011;1911;53.768;11.474;2022-10-04T22:08:36;5.90;;;4.87;;
3791;SDS011;1911;53.768;11.474;2022-10-04T22:11:02;11.20;;;4.57;;
3791;SDS011;1911;53.768;11.474;2022-10-04T22:13:27;6.87;;;4.20;;
3791;SDS011;1911;53.768;11.474;2022-10-04T22:15:53;7.13;;;4.30;;
3791;SDS011;1911;53.768;11.474;2022-10-04T22:18:19;8.90;;;4.70;;
3791;SDS011;1911;53.768;11.474;2022-10-04T22:20:45;6.37;;;3.90;;
3791;SDS011;1911;53.768;11.474;2022-10-04T22:23:18;7.57;;;4.93;;
3791;SDS011;1911;53.768;11.474;2022-10-04T22:25:45;6.63;;;3.80;;
3791;SDS011;1911;53.768;11.474;2022-10-04T22:28:22;6.87;;;4.03;;
3791;SDS011;1911;53.768;11.474;2022-10-04T22:30:49;6.23;;;4.23;;
3791;SDS011;1911;53.768;11.474;2022-10-04T22:35:53;9.17;;;4.53;;
3791;SDS011;1911;53.768;11.474;2022-10-04T22:38:20;6.50;;;4.10;;
3791;SDS011;1911;53.768;11.474;2022-10-04T22:40:46;8.60;;;5.30;;
3791;SDS011;1911;53.768;11.474;2022-10-04T22:43:12;6.20;;;4.17;;
3791;SDS011;1911;53.768;11.474;2022-10-04T22:45:38;7.73;;;5.13;;
3791;SDS011;1911;53.768;11.474;2022-10-04T22:48:08;10.80;;;5.00;;
3791;SDS011;1911;53.768;11.474;2022-10-04T22:50:38;7.97;;;5.30;;
3791;SDS011;1911;53.768;11.474;2022-10-04T22:53:11;7.33;;;4.53;;
3791;SDS011;1911;53.768;11.474;2022-10-04T22:55:40;6.80;;;5.00;;
3791;SDS011;1911;53.768;11.474;2022-10-04T22:58:08;5.90;;;4.20;;
3791;SDS011;1911;53.768;11.474;2022-10-04T23:00:36;6.70;;;3.93;;
3791;SDS011;1911;53.768;11.474;2022-10-04T23:03:04;12.33;;;5.37;;
3791;SDS011;1911;53.768;11.474;2022-10-04T23:05:50;7.17;;;4.93;;
3791;SDS011;1911;53.768;11.474;2022-10-04T23:08:16;9.00;;;3.83;;
3791;SDS011;1911;53.768;11.474;2022-10-04T23:10:44;9.15;;;4.95;;
3791;SDS011;1911;53.768;11.474;2022-10-04T23:13:10;7.27;;;5.23;;
3791;SDS011;1911;53.768;11.474;2022-10-04T23:15:36;6.57;;;5.43;;
3791;SDS011;1911;53.768;11.474;2022-10-04T23:18:04;8.50;;;5.60;;
3791;SDS011;1911;53.768;11.474;2022-10-04T23:20:38;8.23;;;4.73;;
3791;SDS011;1911;53.768;11.474;2022-10-04T23:23:04;7.40;;;5.27;;
3791;SDS011;1911;53.768;11.474;2022-10-04T23:25:35;11.50;;;5.23;;
3791;SDS011;1911;53.768;11.474;2022-10-04T23:28:02;8.00;;;5.00;;
3791;SDS011;1911;53.768;11.474;2022-10-04T23:30:36;9.67;;;5.10;;
3791;SDS011;1911;53.768;11.474;2022-10-04T23:33:05;14.67;;;5.23;;
3791;SDS011;1911;53.768;11.474;2022-10-04T23:35:37;12.30;;;5.23;;
3791;SDS011;1911;53.768;11.474;2022-10-04T23:38:03;7.00;;;4.30;;
3791;SDS011;1911;53.768;11.474;2022-10-04T23:40:31;9.63;;;4.68;;
3791;SDS011;1911;53.768;11.474;2022-10-04T23:43:02;9.90;;;5.33;;
3791;SDS011;1911;53.768;11.474;2022-10-04T23:45:29;9.97;;;5.63;;
3791;SDS011;1911;53.768;11.474;2022-10-04T23:47:55;7.10;;;5.03;;
3791;SDS011;1911;53.768;11.474;2022-10-04T23:50:28;6.40;;;4.40;;
3791;SDS011;1911;53.768;11.474;2022-10-04T23:52:57;10.50;;;5.23;;
3791;SDS011;1911;53.768;11.474;2022-10-04T23:55:37;9.67;;;5.37;;
3791;SDS011;1911;53.768;11.474;2022-10-04T23:58:19;8.50;;;5.63;;
